Wellington, Illinois
Current Conditions -  °F | °C
As of 2:35 AM on Tuesday 27 Jan 2015 (Local Time) from KDNV Reporting Station
Light Rain Light Rain  
Wind Chill: 28°   Ceiling: 300
Heat Index: 28°   Visibility: 2.5mi
Dew Point: 28°   Wind: 0mph
Humidity: 98%   Direction: NA
Pressure: 29.9"   Gusts: NA
Location:  40.54°N, 87.68°W
Report Text: KDNV 270835Z AUTO 00000KT 2 1/2SM -RA OVC003 M02/M02 A2990 RMK AO2 T10221025
Loading
Personal Weather Stations






























Interactive Weather Map New forecast layout! Learn more

10-Day Weather Forecast

Advertisements
Track Severe Weather on mobile